Terminal Aerodrome Forecast
Issued by NWS

Home | Current Version | Previous Version | Graphics & Text | Print | Product List | Glossary Off
Versions: 1 2 3 4 5 6 7 8 9 10 11 12 13 14 15 16

000
FTUS43 KGRB 212339
TAFMTW
TAF
KMTW 212339Z 2200/2224 VRB03KT 6SM -RA SCT060 OVC080
     FM220500 14006KT 5SM -SHRA BR VCTS OVC030CB
     FM221100 10006KT 1SM BR OVC008
     FM221500 04006KT P6SM BKN018
     FM221900 06008KT P6SM SCT035 BKN050=

USA.gov is the U.S. government's official web portal to all federal, state and local government web resources and services.